createdAt,value
2019-03-22T00:00:59.300Z,41.50
2019-03-22T00:03:29.500Z,41.40
2019-03-22T00:05:59.692Z,41.40
2019-03-22T00:08:29.969Z,41.40
2019-03-22T00:11:00.136Z,41.40
2019-03-22T00:13:30.333Z,41.40
2019-03-22T00:16:00.524Z,41.40
2019-03-22T00:18:31.391Z,41.40
2019-03-22T00:21:01.613Z,41.40
2019-03-22T00:23:31.805Z,41.30
2019-03-22T00:26:01.980Z,41.30
2019-03-22T00:28:32.250Z,41.30
2019-03-22T00:31:02.422Z,41.50
2019-03-22T00:33:32.624Z,41.30
2019-03-22T00:36:02.805Z,41.40
2019-03-22T00:38:33.035Z,41.30
2019-03-22T00:41:03.218Z,41.40
2019-03-22T00:43:33.383Z,41.30
2019-03-22T00:46:03.600Z,41.30
2019-03-22T00:48:33.819Z,41.40
2019-03-22T00:51:04.304Z,41.20
2019-03-22T00:53:34.504Z,41.40
2019-03-22T00:56:04.721Z,41.40
2019-03-22T00:58:35.002Z,42.00
2019-03-22T01:01:05.200Z,41.40
2019-03-22T01:03:35.387Z,41.30
2019-03-22T01:06:05.578Z,41.20
2019-03-22T01:08:35.800Z,41.40
2019-03-22T01:11:25.682Z,41.30
2019-03-22T01:13:56.803Z,41.40
2019-03-22T01:16:27.005Z,41.40
2019-03-22T01:18:57.270Z,41.30
2019-03-22T01:21:27.447Z,41.30
2019-03-22T01:23:59.860Z,41.30
2019-03-22T01:26:29.479Z,41.30
2019-03-22T01:28:59.725Z,41.20
2019-03-22T01:31:29.922Z,41.20
2019-03-22T01:34:00.084Z,41.20
2019-03-22T01:36:30.260Z,41.20
2019-03-22T01:39:00.481Z,41.30
2019-03-22T01:41:30.664Z,41.40
2019-03-22T01:44:00.858Z,41.30
2019-03-22T01:46:31.147Z,41.30
2019-03-22T01:49:01.367Z,41.20
2019-03-22T01:51:31.543Z,41.20
2019-03-22T01:54:01.741Z,41.20
2019-03-22T01:56:31.931Z,41.20
2019-03-22T01:59:02.157Z,41.90
2019-03-22T02:01:32.478Z,41.20
2019-03-22T02:04:02.652Z,41.10
2019-03-22T02:06:32.851Z,41.20
2019-03-22T02:09:03.363Z,41.20
2019-03-22T02:11:33.570Z,41.20
2019-03-22T02:14:04.864Z,41.20
2019-03-22T02:16:35.042Z,41.20
2019-03-22T02:19:05.372Z,41.20
2019-03-22T02:21:36.288Z,41.20
2019-03-22T02:24:06.476Z,41.20
2019-03-22T02:26:36.675Z,41.20
2019-03-22T02:29:07.024Z,41.20
2019-03-22T02:31:37.142Z,41.80
2019-03-22T02:34:07.342Z,41.20
2019-03-22T02:36:37.632Z,41.40
2019-03-22T02:39:08.300Z,41.20
2019-03-22T02:41:38.486Z,41.20
2019-03-22T02:44:08.666Z,41.20
2019-03-22T02:46:38.863Z,41.20
2019-03-22T02:49:09.156Z,41.30
2019-03-22T02:51:39.865Z,41.30
2019-03-22T02:54:16.245Z,41.30
2019-03-22T02:56:46.425Z,41.20
2019-03-22T02:59:16.684Z,41.20
2019-03-22T03:01:46.888Z,41.20
2019-03-22T03:04:17.049Z,41.10
2019-03-22T03:06:47.263Z,41.30
2019-03-22T03:09:17.485Z,41.30
2019-03-22T03:11:47.661Z,41.30
2019-03-22T03:14:17.993Z,41.30
2019-03-22T03:16:48.179Z,41.30
2019-03-22T03:19:18.481Z,41.40
2019-03-22T03:22:09.155Z,41.30
2019-03-22T03:24:39.401Z,41.30
2019-03-22T03:27:09.601Z,41.30
2019-03-22T03:29:39.777Z,41.30
2019-03-22T03:32:10.005Z,41.40
2019-03-22T03:34:40.187Z,41.40
2019-03-22T03:37:10.359Z,41.30
2019-03-22T03:39:40.556Z,41.30
2019-03-22T03:42:10.751Z,41.30
2019-03-22T03:44:40.921Z,41.80
2019-03-22T03:47:11.101Z,41.20
2019-03-22T03:49:41.568Z,41.30
2019-03-22T03:52:11.738Z,41.20
2019-03-22T03:54:41.960Z,41.30
2019-03-22T03:57:12.274Z,41.20
2019-03-22T03:59:42.513Z,41.30
2019-03-22T04:02:12.884Z,41.40
2019-03-22T04:04:43.131Z,41.50
2019-03-22T04:07:13.530Z,41.60
2019-03-22T04:09:43.843Z,41.70
2019-03-22T04:12:14.172Z,41.90
2019-03-22T04:14:44.502Z,42.00
2019-03-22T04:17:14.884Z,42.20
2019-03-22T04:19:45.182Z,42.30
2019-03-22T04:22:15.445Z,42.40
2019-03-22T04:24:45.962Z,42.60
2019-03-22T04:27:16.334Z,42.70
2019-03-22T04:29:46.622Z,43.00
2019-03-22T04:32:16.919Z,43.10
2019-03-22T04:34:47.218Z,43.20
2019-03-22T04:37:17.662Z,42.60
2019-03-22T04:39:47.943Z,42.30
2019-03-22T04:42:18.383Z,42.00
2019-03-22T04:44:48.665Z,41.90
2019-03-22T04:47:19.011Z,42.50
2019-03-22T04:49:49.231Z,42.80
2019-03-22T04:52:20.126Z,42.70
2019-03-22T04:54:50.420Z,42.70
2019-03-22T04:57:20.636Z,43.00
2019-03-22T04:59:50.935Z,43.20
2019-03-22T05:02:21.205Z,42.40
2019-03-22T05:04:51.515Z,42.60
2019-03-22T05:07:21.727Z,42.80
2019-03-22T05:09:51.983Z,43.10
2019-03-22T05:12:22.271Z,43.10
2019-03-22T05:14:52.555Z,43.00
2019-03-22T05:17:22.871Z,42.70
2019-03-22T05:19:53.746Z,42.50
2019-03-22T05:22:24.508Z,42.60
2019-03-22T05:24:54.759Z,42.70
2019-03-22T05:27:26.436Z,43.20
2019-03-22T05:29:56.621Z,43.20
2019-03-22T05:32:26.902Z,43.20
2019-03-22T05:34:57.143Z,43.20
2019-03-22T05:37:27.515Z,43.50
2019-03-22T05:39:57.740Z,43.40
2019-03-22T05:42:28.059Z,42.90
2019-03-22T05:44:58.428Z,43.80
2019-03-22T05:47:28.981Z,42.80
2019-03-22T05:49:59.503Z,42.80
2019-03-22T05:52:29.839Z,43.30
2019-03-22T05:55:00.259Z,43.50
2019-03-22T05:57:30.805Z,43.60
2019-03-22T06:00:01.137Z,43.70
2019-03-22T06:02:31.423Z,43.80
2019-03-22T06:05:01.774Z,43.90
2019-03-22T06:07:32.102Z,43.80
2019-03-22T06:10:02.366Z,43.90
2019-03-22T06:12:32.604Z,43.70
2019-03-22T06:15:02.993Z,43.30
2019-03-22T06:17:33.471Z,43.10
2019-03-22T06:20:03.704Z,43.00
2019-03-22T06:22:34.376Z,42.90
2019-03-22T06:25:04.803Z,42.70
2019-03-22T06:27:35.344Z,42.80
2019-03-22T06:30:07.287Z,42.40
2019-03-22T06:32:37.755Z,42.40
2019-03-22T06:35:08.333Z,41.90
2019-03-22T06:37:39.328Z,42.20
2019-03-22T06:40:10.039Z,42.20
2019-03-22T06:42:40.563Z,42.10
2019-03-22T06:45:11.579Z,42.00
2019-03-22T06:47:42.077Z,41.90
2019-03-22T06:50:12.448Z,41.90
2019-03-22T06:52:42.754Z,42.00
2019-03-22T06:55:12.998Z,41.90
2019-03-22T06:57:43.364Z,41.80
2019-03-22T07:00:13.764Z,41.90
2019-03-22T07:02:44.128Z,41.80
2019-03-22T07:05:14.468Z,41.80
2019-03-22T07:07:45.010Z,41.90
2019-03-22T07:10:15.328Z,41.70
2019-03-22T07:12:45.729Z,41.80
2019-03-22T07:15:16.142Z,41.70
2019-03-22T07:17:46.521Z,41.90
2019-03-22T07:20:16.808Z,41.80
2019-03-22T07:22:47.244Z,41.90
2019-03-22T07:25:17.711Z,41.90
2019-03-22T07:27:48.240Z,42.20
2019-03-22T07:30:19.389Z,41.90
2019-03-22T07:32:49.763Z,42.00
2019-03-22T07:35:20.170Z,42.00
2019-03-22T07:37:50.521Z,42.10
2019-03-22T07:40:20.751Z,42.00
2019-03-22T07:42:51.065Z,42.10
2019-03-22T07:45:21.311Z,42.00
2019-03-22T07:47:51.791Z,42.10
2019-03-22T07:50:22.136Z,41.90
2019-03-22T07:52:52.520Z,42.00
2019-03-22T07:55:22.784Z,42.00
2019-03-22T07:57:53.088Z,42.00
2019-03-22T08:00:30.631Z,42.10
2019-03-22T08:02:55.283Z,42.20
2019-03-22T08:05:25.515Z,42.20
2019-03-22T08:07:56.229Z,42.30
2019-03-22T08:10:26.697Z,42.30
2019-03-22T08:12:57.033Z,42.50
2019-03-22T08:15:33.823Z,42.50
2019-03-22T08:18:04.213Z,42.50
2019-03-22T08:20:34.423Z,42.60
2019-03-22T08:23:08.124Z,43.10
2019-03-22T08:25:39.410Z,42.50
2019-03-22T08:28:10.057Z,43.00
2019-03-22T08:30:43.189Z,43.40
2019-03-22T08:33:12.512Z,43.10
2019-03-22T08:35:42.988Z,43.40
2019-03-22T08:38:13.365Z,44.50
2019-03-22T08:40:43.657Z,43.50
2019-03-22T08:43:13.993Z,43.30
2019-03-22T08:45:44.335Z,43.30
2019-03-22T08:48:14.625Z,43.10
2019-03-22T08:50:44.857Z,42.80
2019-03-22T08:53:15.069Z,42.60
2019-03-22T08:55:45.304Z,42.60
2019-03-22T08:58:18.272Z,42.60
2019-03-22T09:00:57.468Z,42.80
2019-03-22T09:03:19.547Z,42.80
2019-03-22T09:05:49.914Z,42.90
2019-03-22T09:08:20.198Z,42.80
2019-03-22T09:10:50.378Z,42.50
2019-03-22T09:13:20.635Z,42.50
2019-03-22T09:15:50.883Z,42.60
2019-03-22T09:18:21.169Z,42.80
2019-03-22T09:20:51.368Z,42.50
2019-03-22T09:23:21.544Z,42.50
2019-03-22T09:25:51.884Z,42.50
2019-03-22T09:28:23.166Z,42.60
2019-03-22T09:30:53.542Z,42.60
2019-03-22T09:33:23.742Z,42.50
2019-03-22T09:35:54.027Z,42.50
2019-03-22T09:38:24.300Z,42.30
2019-03-22T09:40:54.537Z,42.30
2019-03-22T09:43:25.017Z,42.40
2019-03-22T09:45:55.256Z,42.30
2019-03-22T09:48:25.639Z,42.30
2019-03-22T09:50:55.911Z,42.60
2019-03-22T09:53:26.283Z,42.30
2019-03-22T09:55:56.485Z,42.40
2019-03-22T09:58:26.909Z,42.90
2019-03-22T10:00:57.254Z,42.80
2019-03-22T10:03:27.676Z,42.40
2019-03-22T10:05:57.972Z,42.50
2019-03-22T10:08:28.339Z,42.50
2019-03-22T10:10:58.551Z,42.20
2019-03-22T10:13:28.860Z,42.20
2019-03-22T10:15:59.027Z,42.20
2019-03-22T10:18:29.476Z,42.30
2019-03-22T10:20:59.741Z,42.20
2019-03-22T10:23:30.160Z,42.20
2019-03-22T10:26:00.601Z,42.80
2019-03-22T10:28:30.946Z,42.10
2019-03-22T10:31:01.235Z,42.20
2019-03-22T10:33:31.480Z,42.20
2019-03-22T10:36:01.613Z,42.20
2019-03-22T10:38:32.216Z,42.20
2019-03-22T10:41:02.738Z,42.20
2019-03-22T10:43:32.959Z,42.30
2019-03-22T10:46:03.151Z,42.20
2019-03-22T10:48:33.634Z,42.30
2019-03-22T10:51:03.939Z,42.90
2019-03-22T10:53:34.252Z,42.30
2019-03-22T10:56:04.418Z,42.40
2019-03-22T10:58:35.328Z,42.30
2019-03-22T11:01:08.276Z,42.30
2019-03-22T11:03:38.595Z,42.80
2019-03-22T11:06:11.174Z,42.30
2019-03-22T11:08:41.499Z,42.20
2019-03-22T11:11:11.719Z,42.40
2019-03-22T11:13:41.910Z,42.80
2019-03-22T11:16:12.086Z,42.80
2019-03-22T11:18:42.419Z,42.80
2019-03-22T11:21:12.723Z,42.60
2019-03-22T11:23:43.136Z,42.70
2019-03-22T11:26:13.460Z,42.80
2019-03-22T11:28:44.685Z,42.50
2019-03-22T11:31:16.482Z,42.90
2019-03-22T11:33:46.809Z,42.50
2019-03-22T11:36:17.108Z,42.60
2019-03-22T11:38:47.680Z,42.60
2019-03-22T11:41:18.038Z,42.80
2019-03-22T11:43:48.294Z,43.10
2019-03-22T11:46:18.535Z,42.80
2019-03-22T11:48:48.794Z,42.70
2019-03-22T11:51:18.978Z,43.10
2019-03-22T11:53:49.200Z,42.90
2019-03-22T11:56:19.503Z,42.80
2019-03-22T11:58:49.938Z,42.90
2019-03-22T12:01:22.319Z,43.20
2019-03-22T12:03:52.182Z,42.80
2019-03-22T12:06:22.472Z,43.00
2019-03-22T12:08:52.767Z,42.70
2019-03-22T12:11:23.007Z,42.90
2019-03-22T12:13:53.329Z,42.80
2019-03-22T12:16:23.499Z,43.70
2019-03-22T12:18:53.752Z,43.40
2019-03-22T12:21:24.023Z,43.10
2019-03-22T12:23:54.423Z,43.20
2019-03-22T12:26:24.810Z,43.20
2019-03-22T12:28:55.299Z,43.10
2019-03-22T12:31:25.610Z,43.00
2019-03-22T12:33:55.848Z,43.40
2019-03-22T12:36:26.178Z,43.50
2019-03-22T12:38:56.587Z,43.30
2019-03-22T12:41:27.017Z,43.80
2019-03-22T12:43:57.235Z,43.20
2019-03-22T12:46:27.472Z,43.50
2019-03-22T12:48:57.951Z,43.30
2019-03-22T12:51:28.312Z,43.40
2019-03-22T12:53:58.635Z,43.40
2019-03-22T12:56:29.051Z,43.00
2019-03-22T12:58:59.498Z,43.40
2019-03-22T13:01:29.922Z,43.00
2019-03-22T13:04:00.378Z,43.00
2019-03-22T13:06:30.651Z,42.80
2019-03-22T13:09:01.129Z,42.90
2019-03-22T13:11:31.505Z,43.20
2019-03-22T13:14:01.744Z,43.20
2019-03-22T13:16:32.055Z,43.30
2019-03-22T13:19:02.511Z,43.50
2019-03-22T13:21:32.781Z,43.90
2019-03-22T13:24:03.125Z,43.40
2019-03-22T13:26:33.375Z,43.50
2019-03-22T13:29:03.724Z,43.40
2019-03-22T13:31:34.916Z,43.50
2019-03-22T13:34:05.271Z,43.80
2019-03-22T13:36:35.607Z,44.10
2019-03-22T13:39:08.104Z,43.60
2019-03-22T13:41:38.383Z,43.70
2019-03-22T13:44:08.652Z,43.90
2019-03-22T13:46:40.543Z,43.70
2019-03-22T13:49:10.890Z,43.60
2019-03-22T13:51:41.290Z,44.20
2019-03-22T13:54:11.660Z,43.90
2019-03-22T13:56:42.051Z,43.90
2019-03-22T13:59:12.513Z,43.80
2019-03-22T14:01:42.797Z,43.90
2019-03-22T14:04:13.898Z,43.60
2019-03-22T14:06:44.151Z,43.90
2019-03-22T14:09:14.476Z,43.80
2019-03-22T14:11:44.742Z,43.90
2019-03-22T14:14:34.550Z,43.80
2019-03-22T14:17:05.753Z,43.60
2019-03-22T14:19:35.964Z,43.50
2019-03-22T14:22:06.273Z,43.50
2019-03-22T14:24:36.599Z,43.60
2019-03-22T14:27:06.939Z,43.50
2019-03-22T14:29:37.258Z,43.70
2019-03-22T14:32:07.974Z,43.70
2019-03-22T14:34:38.313Z,43.60
2019-03-22T14:37:08.627Z,43.40
2019-03-22T14:39:38.918Z,43.50
2019-03-22T14:42:10.051Z,43.50
2019-03-22T14:44:40.457Z,43.40
2019-03-22T14:47:12.913Z,43.40
2019-03-22T14:49:42.712Z,43.40
2019-03-22T14:52:13.100Z,43.50
2019-03-22T14:54:43.431Z,43.60
2019-03-22T14:57:13.840Z,43.50
2019-03-22T14:59:44.279Z,43.40
2019-03-22T15:02:14.523Z,43.30
2019-03-22T15:04:44.772Z,43.50
2019-03-22T15:07:19.561Z,43.30
2019-03-22T15:09:47.123Z,43.30
2019-03-22T15:12:17.487Z,43.30
2019-03-22T15:15:21.635Z,43.30
2019-03-22T15:18:13.952Z,43.40
2019-03-22T15:21:01.642Z,43.50
2019-03-22T15:23:49.055Z,43.40
2019-03-22T15:26:41.182Z,43.30
2019-03-22T15:29:39.219Z,43.30
2019-03-22T15:32:46.701Z,43.40
2019-03-22T15:35:41.593Z,43.40
2019-03-22T15:38:30.905Z,43.30
2019-03-22T15:41:01.356Z,43.20
2019-03-22T15:43:31.617Z,43.20
2019-03-22T15:46:01.866Z,43.20
2019-03-22T15:48:32.638Z,43.30
2019-03-22T15:51:02.893Z,43.30
2019-03-22T15:53:33.227Z,43.20
2019-03-22T15:56:03.519Z,42.50
2019-03-22T15:58:33.807Z,43.10
2019-03-22T16:01:04.122Z,43.00
2019-03-22T16:03:43.883Z,43.00
2019-03-22T16:06:06.319Z,42.90
2019-03-22T16:08:36.616Z,42.90
2019-03-22T16:11:06.865Z,43.00
2019-03-22T16:13:37.110Z,43.00
2019-03-22T16:16:07.407Z,42.90
2019-03-22T16:18:38.249Z,42.90
2019-03-22T16:21:08.497Z,43.00
2019-03-22T16:23:38.714Z,42.90
2019-03-22T16:26:08.993Z,42.90
2019-03-22T16:28:39.348Z,42.90
2019-03-22T16:31:09.715Z,42.90
2019-03-22T16:33:40.082Z,42.90
2019-03-22T16:36:10.540Z,43.60
2019-03-22T16:38:40.932Z,43.00
2019-03-22T16:41:11.222Z,42.90
2019-03-22T16:43:41.563Z,42.90
2019-03-22T16:46:14.073Z,43.00
2019-03-22T16:48:43.732Z,43.00
2019-03-22T16:51:14.447Z,43.00
2019-03-22T16:53:44.684Z,43.40
2019-03-22T16:56:14.887Z,43.00
2019-03-22T16:58:45.335Z,43.10
2019-03-22T17:01:15.891Z,43.00
2019-03-22T17:03:46.211Z,43.00
2019-03-22T17:06:16.535Z,43.00
2019-03-22T17:08:46.891Z,43.10
2019-03-22T17:11:17.208Z,43.00
2019-03-22T17:13:47.533Z,43.20
2019-03-22T17:16:17.893Z,43.20
2019-03-22T17:18:48.288Z,43.40
2019-03-22T17:21:18.534Z,43.20
2019-03-22T17:23:48.751Z,43.20
2019-03-22T17:26:19.005Z,43.20
2019-03-22T17:28:49.419Z,43.50
2019-03-22T17:31:19.771Z,43.40
2019-03-22T17:33:50.026Z,43.50
2019-03-22T17:36:20.373Z,43.80
2019-03-22T17:38:50.758Z,43.90
2019-03-22T17:41:21.065Z,44.00
2019-03-22T17:43:51.311Z,44.20
2019-03-22T17:46:21.620Z,44.40
2019-03-22T17:48:52.073Z,44.50
2019-03-22T17:51:22.331Z,44.70
2019-03-22T17:53:52.620Z,44.70
2019-03-22T17:56:22.868Z,44.70
2019-03-22T17:58:53.149Z,44.80
2019-03-22T18:01:23.387Z,44.80
2019-03-22T18:03:53.716Z,44.70
2019-03-22T18:06:24.002Z,44.70
2019-03-22T18:08:54.319Z,44.70
2019-03-22T18:11:24.618Z,44.50
2019-03-22T18:13:54.943Z,44.70
2019-03-22T18:16:25.155Z,44.70
2019-03-22T18:18:55.515Z,44.70
2019-03-22T18:21:25.780Z,45.00
2019-03-22T18:23:56.177Z,45.20
2019-03-22T18:26:26.490Z,45.10
2019-03-22T18:28:56.891Z,45.20
2019-03-22T18:31:27.650Z,46.20
2019-03-22T18:33:58.002Z,46.30
2019-03-22T18:36:28.863Z,46.60
2019-03-22T18:38:59.931Z,47.10
2019-03-22T18:41:30.885Z,47.40
2019-03-22T18:44:01.902Z,47.20
2019-03-22T18:46:33.440Z,48.00
2019-03-22T18:49:03.828Z,47.00
2019-03-22T18:51:34.147Z,47.50
2019-03-22T18:54:04.736Z,47.00
2019-03-22T18:56:35.036Z,47.60
2019-03-22T18:59:05.316Z,46.90
2019-03-22T19:01:35.764Z,47.50
2019-03-22T19:04:06.217Z,47.60
2019-03-22T19:06:36.556Z,47.40
2019-03-22T19:09:08.864Z,47.50
2019-03-22T19:11:39.400Z,47.30
2019-03-22T19:14:09.738Z,47.30
2019-03-22T19:16:39.940Z,47.20
2019-03-22T19:19:10.409Z,47.30
2019-03-22T19:21:40.735Z,46.80
2019-03-22T19:24:11.100Z,46.70
2019-03-22T19:26:41.470Z,46.40
2019-03-22T19:29:13.268Z,46.30
2019-03-22T19:31:43.636Z,46.30
2019-03-22T19:34:14.065Z,46.10
2019-03-22T19:36:44.500Z,46.10
2019-03-22T19:39:14.953Z,46.10
2019-03-22T19:41:45.170Z,46.10
2019-03-22T19:44:15.458Z,46.00
2019-03-22T19:46:45.754Z,45.90
2019-03-22T19:49:16.143Z,46.10
2019-03-22T19:51:46.471Z,45.90
2019-03-22T19:54:16.717Z,45.80
2019-03-22T19:56:47.010Z,46.30
2019-03-22T19:59:17.328Z,45.90
2019-03-22T20:01:47.551Z,45.90
2019-03-22T20:04:17.755Z,45.80
2019-03-22T20:06:47.976Z,45.70
2019-03-22T20:09:18.404Z,45.70
2019-03-22T20:11:48.996Z,45.70
2019-03-22T20:14:19.193Z,45.50
2019-03-22T20:16:49.514Z,45.50
2019-03-22T20:19:19.832Z,45.40
2019-03-22T20:21:50.198Z,45.30
2019-03-22T20:24:20.617Z,45.30
2019-03-22T20:26:50.915Z,45.20
2019-03-22T20:29:21.237Z,45.10
2019-03-22T20:31:51.497Z,45.00
2019-03-22T20:34:21.802Z,45.00
2019-03-22T20:36:52.133Z,45.00
2019-03-22T20:39:22.349Z,45.00
2019-03-22T20:41:52.617Z,45.00
2019-03-22T20:44:33.393Z,45.10
2019-03-22T20:46:54.731Z,45.10
2019-03-22T20:49:26.034Z,45.00
2019-03-22T20:51:56.300Z,45.20
2019-03-22T20:54:26.628Z,45.10
2019-03-22T20:56:57.027Z,45.00
2019-03-22T20:59:27.501Z,45.10
2019-03-22T21:01:57.801Z,45.20
2019-03-22T21:04:28.079Z,45.10
2019-03-22T21:06:58.452Z,45.00
2019-03-22T21:09:29.046Z,45.40
2019-03-22T21:11:59.557Z,44.60
2019-03-22T21:14:30.830Z,44.40
2019-03-22T21:17:01.309Z,44.40
2019-03-22T21:19:31.633Z,44.30
2019-03-22T21:22:02.403Z,44.20
2019-03-22T21:24:32.668Z,44.10
2019-03-22T21:27:02.907Z,44.00
2019-03-22T21:29:43.493Z,43.90
2019-03-22T21:32:05.258Z,43.80
2019-03-22T21:34:35.733Z,43.80
2019-03-22T21:37:07.289Z,43.70
2019-03-22T21:39:37.723Z,43.60
2019-03-22T21:42:08.028Z,43.50
2019-03-22T21:44:38.353Z,43.50
2019-03-22T21:47:08.804Z,43.40
2019-03-22T21:49:39.200Z,43.40
2019-03-22T21:52:09.694Z,43.40
2019-03-22T21:54:40.046Z,43.30
2019-03-22T21:57:10.337Z,43.30
2019-03-22T21:59:40.643Z,43.40
2019-03-22T22:02:11.069Z,43.40
2019-03-22T22:04:41.327Z,43.40
2019-03-22T22:07:11.615Z,43.50
2019-03-22T22:09:41.993Z,43.50
2019-03-22T22:12:12.747Z,43.70
2019-03-22T22:14:43.059Z,44.00
2019-03-22T22:17:13.781Z,44.00
2019-03-22T22:19:44.350Z,44.30
2019-03-22T22:22:14.913Z,44.20
2019-03-22T22:24:45.393Z,43.90
2019-03-22T22:27:15.742Z,44.00
2019-03-22T22:29:47.567Z,44.30
2019-03-22T22:32:17.983Z,44.00
2019-03-22T22:34:48.367Z,43.80
2019-03-22T22:37:18.838Z,43.80
2019-03-22T22:39:49.236Z,43.80
2019-03-22T22:42:19.601Z,44.20
2019-03-22T22:44:49.932Z,43.80
2019-03-22T22:47:20.422Z,43.70
2019-03-22T22:49:50.823Z,43.80
2019-03-22T22:52:21.209Z,43.80
2019-03-22T22:54:51.668Z,43.70
2019-03-22T22:57:22.179Z,43.80
2019-03-22T22:59:52.604Z,43.80
2019-03-22T23:02:23.035Z,43.80
2019-03-22T23:04:53.309Z,43.80
2019-03-22T23:07:23.909Z,43.90
2019-03-22T23:09:54.335Z,43.80
2019-03-22T23:12:24.674Z,44.00
2019-03-22T23:14:55.033Z,44.00
2019-03-22T23:17:25.508Z,44.00
2019-03-22T23:19:56.096Z,44.00
2019-03-22T23:22:27.804Z,44.20
2019-03-22T23:24:58.142Z,43.90
2019-03-22T23:27:28.630Z,44.10
2019-03-22T23:29:59.027Z,44.00
2019-03-22T23:32:29.484Z,44.00
2019-03-22T23:34:59.751Z,43.80
2019-03-22T23:37:30.239Z,43.90
2019-03-22T23:40:00.646Z,43.90
2019-03-22T23:42:31.116Z,43.80
2019-03-22T23:45:01.403Z,43.80
2019-03-22T23:47:31.769Z,43.90
2019-03-22T23:50:02.169Z,43.80
2019-03-22T23:52:32.535Z,43.80
2019-03-22T23:55:02.889Z,43.70
2019-03-22T23:57:33.337Z,43.70
